sensor_id;sensor_type;location;lat;lon;timestamp;pressure;altitude;pressure_sealevel;temperature;humidity
57056;BME280;42945;51.718;5.324;2023-11-19T00:01:43;100746.09;;;11.50;100.00
57056;BME280;42945;51.718;5.324;2023-11-19T00:04:08;100774.41;;;11.63;100.00
57056;BME280;42945;51.718;5.324;2023-11-19T00:06:33;100756.66;;;11.64;100.00
57056;BME280;42945;51.718;5.324;2023-11-19T00:08:59;100722.22;;;11.62;100.00
57056;BME280;42945;51.718;5.324;2023-11-19T00:11:25;100750.03;;;11.71;100.00
57056;BME280;42945;51.718;5.324;2023-11-19T00:13:50;100718.53;;;11.65;100.00
57056;BME280;42945;51.718;5.324;2023-11-19T00:16:15;100686.84;;;11.62;100.00
57056;BME280;42945;51.718;5.324;2023-11-19T00:18:41;100738.66;;;11.69;100.00
57056;BME280;42945;51.718;5.324;2023-11-19T00:21:06;100740.25;;;11.72;100.00
57056;BME280;42945;51.718;5.324;2023-11-19T00:23:35;100725.63;;;11.79;100.00
57056;BME280;42945;51.718;5.324;2023-11-19T00:26:00;100616.28;;;11.16;100.00
57056;BME280;42945;51.718;5.324;2023-11-19T00:28:25;100702.28;;;11.70;100.00
57056;BME280;42945;51.718;5.324;2023-11-19T00:30:51;100670.00;;;11.76;100.00
57056;BME280;42945;51.718;5.324;2023-11-19T00:33:16;100705.31;;;11.78;100.00
57056;BME280;42945;51.718;5.324;2023-11-19T00:35:41;100705.53;;;11.75;100.00
57056;BME280;42945;51.718;5.324;2023-11-19T00:38:06;100701.41;;;11.83;100.00
57056;BME280;42945;51.718;5.324;2023-11-19T00:40:32;100667.94;;;11.67;100.00
57056;BME280;42945;51.718;5.324;2023-11-19T00:42:57;100696.50;;;11.77;100.00
57056;BME280;42945;51.718;5.324;2023-11-19T00:45:22;100708.53;;;11.69;100.00
57056;BME280;42945;51.718;5.324;2023-11-19T00:47:48;100678.31;;;11.57;100.00
57056;BME280;42945;51.718;5.324;2023-11-19T00:50:15;100718.81;;;11.75;100.00
57056;BME280;42945;51.718;5.324;2023-11-19T00:52:40;100682.53;;;11.74;100.00
57056;BME280;42945;51.718;5.324;2023-11-19T00:55:06;100701.34;;;11.71;100.00
57056;BME280;42945;51.718;5.324;2023-11-19T00:57:31;100719.44;;;11.78;100.00
57056;BME280;42945;51.718;5.324;2023-11-19T01:00:00;100688.09;;;11.56;100.00
57056;BME280;42945;51.718;5.324;2023-11-19T01:02:25;100653.91;;;11.65;100.00
57056;BME280;42945;51.718;5.324;2023-11-19T01:04:50;100667.75;;;11.70;100.00
57056;BME280;42945;51.718;5.324;2023-11-19T01:07:16;100674.72;;;11.58;100.00
57056;BME280;42945;51.718;5.324;2023-11-19T01:09:41;100695.22;;;11.56;100.00
57056;BME280;42945;51.718;5.324;2023-11-19T01:12:07;100718.53;;;11.65;100.00
57056;BME280;42945;51.718;5.324;2023-11-19T01:14:32;100664.28;;;11.55;100.00
57056;BME280;42945;51.718;5.324;2023-11-19T01:16:57;100670.31;;;11.71;100.00
57056;BME280;42945;51.718;5.324;2023-11-19T01:19:22;100618.47;;;11.51;100.00
57056;BME280;42945;51.718;5.324;2023-11-19T01:21:48;100657.72;;;11.60;100.00
57056;BME280;42945;51.718;5.324;2023-11-19T01:24:13;100677.72;;;11.66;100.00
57056;BME280;42945;51.718;5.324;2023-11-19T01:26:39;100638.78;;;11.52;100.00
57056;BME280;42945;51.718;5.324;2023-11-19T01:29:04;100647.75;;;11.64;100.00
57056;BME280;42945;51.718;5.324;2023-11-19T01:31:30;100644.25;;;11.63;100.00
57056;BME280;42945;51.718;5.324;2023-11-19T01:33:55;100644.09;;;11.52;100.00
57056;BME280;42945;51.718;5.324;2023-11-19T01:36:20;100685.25;;;11.59;100.00
57056;BME280;42945;51.718;5.324;2023-11-19T01:38:46;100641.38;;;11.67;100.00
57056;BME280;42945;51.718;5.324;2023-11-19T01:41:11;100675.00;;;11.53;100.00
57056;BME280;42945;51.718;5.324;2023-11-19T01:43:37;100685.78;;;11.65;100.00
57056;BME280;42945;51.718;5.324;2023-11-19T01:46:03;100697.97;;;11.54;100.00
57056;BME280;42945;51.718;5.324;2023-11-19T01:48:29;100656.06;;;11.45;100.00
57056;BME280;42945;51.718;5.324;2023-11-19T01:50:55;100666.44;;;11.62;100.00
57056;BME280;42945;51.718;5.324;2023-11-19T01:53:20;100679.50;;;11.38;100.00
57056;BME280;42945;51.718;5.324;2023-11-19T01:55:48;100617.22;;;11.30;100.00
57056;BME280;42945;51.718;5.324;2023-11-19T01:58:14;100651.19;;;11.25;100.00
57056;BME280;42945;51.718;5.324;2023-11-19T02:00:40;100591.66;;;11.14;100.00
57056;BME280;42945;51.718;5.324;2023-11-19T02:03:05;100644.63;;;11.30;100.00
57056;BME280;42945;51.718;5.324;2023-11-19T02:05:33;100634.13;;;11.29;100.00
57056;BME280;42945;51.718;5.324;2023-11-19T02:07:59;100645.09;;;11.37;100.00
57056;BME280;42945;51.718;5.324;2023-11-19T02:10:24;100628.06;;;11.27;100.00
57056;BME280;42945;51.718;5.324;2023-11-19T02:12:50;100615.81;;;11.24;100.00
57056;BME280;42945;51.718;5.324;2023-11-19T02:15:16;100626.75;;;11.05;100.00
57056;BME280;42945;51.718;5.324;2023-11-19T02:17:44;100682.00;;;10.98;100.00
57056;BME280;42945;51.718;5.324;2023-11-19T02:20:09;100667.13;;;11.25;100.00
57056;BME280;42945;51.718;5.324;2023-11-19T02:22:36;100683.41;;;11.18;100.00
57056;BME280;42945;51.718;5.324;2023-11-19T02:25:04;100642.66;;;11.19;100.00
57056;BME280;42945;51.718;5.324;2023-11-19T02:30:15;100656.00;;;11.18;100.00
57056;BME280;42945;51.718;5.324;2023-11-19T02:32:41;100660.09;;;11.23;100.00
57056;BME280;42945;51.718;5.324;2023-11-19T02:35:06;100619.13;;;11.28;100.00
57056;BME280;42945;51.718;5.324;2023-11-19T02:37:33;100624.91;;;11.34;100.00
57056;BME280;42945;51.718;5.324;2023-11-19T02:39:59;100604.75;;;11.17;100.00
57056;BME280;42945;51.718;5.324;2023-11-19T02:42:34;100654.41;;;11.15;100.00
57056;BME280;42945;51.718;5.324;2023-11-19T02:44:59;100613.28;;;11.08;100.00
57056;BME280;42945;51.718;5.324;2023-11-19T02:47:25;100506.41;;;10.36;100.00
57056;BME280;42945;51.718;5.324;2023-11-19T02:49:50;100516.44;;;10.45;100.00
57056;BME280;42945;51.718;5.324;2023-11-19T02:52:15;100650.72;;;11.03;100.00
57056;BME280;42945;51.718;5.324;2023-11-19T02:54:40;100642.28;;;10.97;100.00
57056;BME280;42945;51.718;5.324;2023-11-19T02:57:06;100643.25;;;10.96;100.00
57056;BME280;42945;51.718;5.324;2023-11-19T02:59:33;100666.34;;;10.79;100.00
57056;BME280;42945;51.718;5.324;2023-11-19T03:02:04;100631.41;;;10.73;100.00
57056;BME280;42945;51.718;5.324;2023-11-19T03:04:31;100601.94;;;10.63;100.00
57056;BME280;42945;51.718;5.324;2023-11-19T03:06:56;100530.66;;;9.85;100.00
57056;BME280;42945;51.718;5.324;2023-11-19T03:09:23;100605.84;;;10.57;100.00
57056;BME280;42945;51.718;5.324;2023-11-19T03:11:49;100514.88;;;9.98;100.00
57056;BME280;42945;51.718;5.324;2023-11-19T03:14:14;100637.56;;;10.59;100.00
57056;BME280;42945;51.718;5.324;2023-11-19T03:16:39;100672.59;;;10.50;100.00
57056;BME280;42945;51.718;5.324;2023-11-19T03:19:05;100601.16;;;10.47;100.00
57056;BME280;42945;51.718;5.324;2023-11-19T03:21:30;100675.09;;;10.37;100.00
57056;BME280;42945;51.718;5.324;2023-11-19T03:23:56;100647.47;;;10.11;100.00
57056;BME280;42945;51.718;5.324;2023-11-19T03:26:21;100530.66;;;9.55;100.00
57056;BME280;42945;51.718;5.324;2023-11-19T03:28:47;100699.38;;;10.29;100.00
57056;BME280;42945;51.718;5.324;2023-11-19T03:31:12;100663.75;;;10.35;100.00
57056;BME280;42945;51.718;5.324;2023-11-19T03:33:37;100593.50;;;10.12;100.00
57056;BME280;42945;51.718;5.324;2023-11-19T03:39:06;100675.97;;;10.21;100.00
57056;BME280;42945;51.718;5.324;2023-11-19T03:41:31;100650.06;;;9.96;100.00
57056;BME280;42945;51.718;5.324;2023-11-19T03:43:56;100614.53;;;10.00;100.00
57056;BME280;42945;51.718;5.324;2023-11-19T03:46:22;100628.69;;;9.99;100.00
57056;BME280;42945;51.718;5.324;2023-11-19T03:48:50;100574.25;;;9.79;100.00
57056;BME280;42945;51.718;5.324;2023-11-19T03:51:15;100631.56;;;10.11;100.00
57056;BME280;42945;51.718;5.324;2023-11-19T03:53:44;100612.78;;;9.85;100.00
57056;BME280;42945;51.718;5.324;2023-11-19T03:56:09;100622.78;;;10.10;100.00
57056;BME280;42945;51.718;5.324;2023-11-19T03:58:35;100564.38;;;10.12;100.00
57056;BME280;42945;51.718;5.324;2023-11-19T04:01:00;100573.00;;;10.15;100.00
57056;BME280;42945;51.718;5.324;2023-11-19T04:03:26;100620.31;;;10.07;100.00
57056;BME280;42945;51.718;5.324;2023-11-19T04:05:51;100575.88;;;9.96;100.00
57056;BME280;42945;51.718;5.324;2023-11-19T04:08:16;100622.28;;;10.03;100.00
57056;BME280;42945;51.718;5.324;2023-11-19T04:10:41;100557.94;;;10.01;100.00
57056;BME280;42945;51.718;5.324;2023-11-19T04:13:06;100595.88;;;10.02;100.00
57056;BME280;42945;51.718;5.324;2023-11-19T04:15:32;100494.00;;;9.33;100.00
57056;BME280;42945;51.718;5.324;2023-11-19T04:17:57;100630.66;;;9.96;100.00
57056;BME280;42945;51.718;5.324;2023-11-19T04:20:22;100564.13;;;9.86;100.00
57056;BME280;42945;51.718;5.324;2023-11-19T04:22:49;100671.59;;;9.90;100.00
57056;BME280;42945;51.718;5.324;2023-11-19T04:28:17;100593.88;;;9.91;100.00
57056;BME280;42945;51.718;5.324;2023-11-19T04:30:42;100653.03;;;10.06;100.00
57056;BME280;42945;51.718;5.324;2023-11-19T04:33:09;100590.47;;;10.03;100.00
57056;BME280;42945;51.718;5.324;2023-11-19T04:35:34;100652.53;;;9.99;100.00
57056;BME280;42945;51.718;5.324;2023-11-19T04:37:59;100637.72;;;9.81;100.00
57056;BME280;42945;51.718;5.324;2023-11-19T04:40:24;100556.75;;;9.15;100.00
57056;BME280;42945;51.718;5.324;2023-11-19T04:42:50;100662.22;;;9.84;100.00
57056;BME280;42945;51.718;5.324;2023-11-19T04:45:15;100659.69;;;10.13;100.00
57056;BME280;42945;51.718;5.324;2023-11-19T04:47:41;100607.47;;;9.85;100.00
57056;BME280;42945;51.718;5.324;2023-11-19T04:50:06;100645.81;;;9.94;100.00
57056;BME280;42945;51.718;5.324;2023-11-19T04:52:36;100641.47;;;9.93;100.00
57056;BME280;42945;51.718;5.324;2023-11-19T04:55:02;100613.34;;;9.90;100.00
57056;BME280;42945;51.718;5.324;2023-11-19T04:57:27;100632.31;;;9.82;100.00
57056;BME280;42945;51.718;5.324;2023-11-19T04:59:52;100631.97;;;9.89;100.00
57056;BME280;42945;51.718;5.324;2023-11-19T05:02:17;100610.44;;;9.79;100.00
57056;BME280;42945;51.718;5.324;2023-11-19T05:04:43;100641.38;;;9.78;100.00
57056;BME280;42945;51.718;5.324;2023-11-19T05:07:09;100617.59;;;9.62;100.00
57056;BME280;42945;51.718;5.324;2023-11-19T05:09:34;100655.91;;;9.87;100.00
57056;BME280;42945;51.718;5.324;2023-11-19T05:12:18;100625.84;;;9.72;100.00
57056;BME280;42945;51.718;5.324;2023-11-19T05:14:43;100640.13;;;9.70;100.00
57056;BME280;42945;51.718;5.324;2023-11-19T05:17:14;100640.94;;;9.86;100.00
57056;BME280;42945;51.718;5.324;2023-11-19T05:19:40;100653.88;;;9.76;100.00
57056;BME280;42945;51.718;5.324;2023-11-19T05:22:06;100621.25;;;9.76;100.00
57056;BME280;42945;51.718;5.324;2023-11-19T05:24:31;100639.38;;;9.68;100.00
57056;BME280;42945;51.718;5.324;2023-11-19T05:26:56;100608.34;;;9.70;100.00
57056;BME280;42945;51.718;5.324;2023-11-19T05:29:23;100633.88;;;9.71;100.00
57056;BME280;42945;51.718;5.324;2023-11-19T05:31:48;100663.78;;;9.73;100.00
57056;BME280;42945;51.718;5.324;2023-11-19T05:34:14;100672.94;;;9.83;100.00
57056;BME280;42945;51.718;5.324;2023-11-19T05:36:40;100628.09;;;9.64;100.00
57056;BME280;42945;51.718;5.324;2023-11-19T05:39:05;100630.78;;;9.78;100.00
57056;BME280;42945;51.718;5.324;2023-11-19T05:41:30;100685.13;;;9.85;100.00
57056;BME280;42945;51.718;5.324;2023-11-19T05:43:56;100554.03;;;9.00;100.00
57056;BME280;42945;51.718;5.324;2023-11-19T05:46:21;100699.41;;;9.67;100.00
57056;BME280;42945;51.718;5.324;2023-11-19T05:48:46;100663.00;;;9.71;100.00
57056;BME280;42945;51.718;5.324;2023-11-19T05:51:12;100641.41;;;9.62;100.00
57056;BME280;42945;51.718;5.324;2023-11-19T05:53:37;100657.91;;;9.68;100.00
57056;BME280;42945;51.718;5.324;2023-11-19T05:56:02;100524.69;;;8.89;100.00
57056;BME280;42945;51.718;5.324;2023-11-19T05:58:29;100570.16;;;8.96;100.00
57056;BME280;42945;51.718;5.324;2023-11-19T06:00:54;100668.75;;;9.63;100.00
57056;BME280;42945;51.718;5.324;2023-11-19T06:03:20;100669.00;;;9.58;100.00
57056;BME280;42945;51.718;5.324;2023-11-19T06:05:46;100638.34;;;9.54;100.00
57056;BME280;42945;51.718;5.324;2023-11-19T06:08:12;100650.97;;;9.65;100.00
57056;BME280;42945;51.718;5.324;2023-11-19T06:10:41;100610.25;;;9.36;100.00
57056;BME280;42945;51.718;5.324;2023-11-19T06:13:06;100633.56;;;9.45;100.00
57056;BME280;42945;51.718;5.324;2023-11-19T06:15:32;100702.72;;;9.71;100.00
57056;BME280;42945;51.718;5.324;2023-11-19T06:17:58;100684.81;;;9.60;100.00
57056;BME280;42945;51.718;5.324;2023-11-19T06:20:25;100629.81;;;9.49;100.00
57056;BME280;42945;51.718;5.324;2023-11-19T06:22:53;100634.34;;;9.47;100.00
57056;BME280;42945;51.718;5.324;2023-11-19T06:25:18;100652.19;;;9.43;100.00
57056;BME280;42945;51.718;5.324;2023-11-19T06:27:43;100510.44;;;8.76;100.00
57056;BME280;42945;51.718;5.324;2023-11-19T06:30:09;100640.56;;;9.30;100.00
57056;BME280;42945;51.718;5.324;2023-11-19T06:32:35;100672.31;;;9.30;100.00
57056;BME280;42945;51.718;5.324;2023-11-19T06:35:01;100680.81;;;9.37;100.00
57056;BME280;42945;51.718;5.324;2023-11-19T06:37:26;100619.50;;;9.29;100.00
57056;BME280;42945;51.718;5.324;2023-11-19T06:39:52;100670.97;;;9.39;100.00
57056;BME280;42945;51.718;5.324;2023-11-19T06:42:17;100606.16;;;9.30;100.00
57056;BME280;42945;51.718;5.324;2023-11-19T06:44:42;100665.84;;;9.36;100.00
57056;BME280;42945;51.718;5.324;2023-11-19T06:47:08;100675.59;;;9.35;100.00
57056;BME280;42945;51.718;5.324;2023-11-19T06:49:33;100701.38;;;9.32;100.00
57056;BME280;42945;51.718;5.324;2023-11-19T06:51:58;100678.50;;;9.31;100.00
57056;BME280;42945;51.718;5.324;2023-11-19T06:54:23;100657.63;;;9.24;100.00
57056;BME280;42945;51.718;5.324;2023-11-19T06:56:48;100679.34;;;9.31;100.00
57056;BME280;42945;51.718;5.324;2023-11-19T06:59:14;100598.72;;;8.73;100.00
57056;BME280;42945;51.718;5.324;2023-11-19T07:01:39;100684.63;;;9.31;100.00
57056;BME280;42945;51.718;5.324;2023-11-19T07:04:04;100704.97;;;9.46;100.00
57056;BME280;42945;51.718;5.324;2023-11-19T07:06:34;100748.00;;;9.50;100.00
57056;BME280;42945;51.718;5.324;2023-11-19T07:08:59;100713.91;;;9.44;100.00
57056;BME280;42945;51.718;5.324;2023-11-19T07:11:24;100725.78;;;9.37;100.00
57056;BME280;42945;51.718;5.324;2023-11-19T07:13:49;100660.47;;;9.37;100.00
57056;BME280;42945;51.718;5.324;2023-11-19T07:16:15;100677.81;;;9.27;100.00
57056;BME280;42945;51.718;5.324;2023-11-19T07:18:40;100693.34;;;9.49;100.00
57056;BME280;42945;51.718;5.324;2023-11-19T07:21:06;100736.06;;;9.59;100.00
57056;BME280;42945;51.718;5.324;2023-11-19T07:23:35;100680.88;;;9.51;100.00
57056;BME280;42945;51.718;5.324;2023-11-19T07:26:00;100735.72;;;9.65;100.00
57056;BME280;42945;51.718;5.324;2023-11-19T07:28:26;100712.72;;;9.50;100.00
57056;BME280;42945;51.718;5.324;2023-11-19T07:30:53;100698.13;;;9.42;100.00
57056;BME280;42945;51.718;5.324;2023-11-19T07:33:30;100694.88;;;9.53;100.00
57056;BME280;42945;51.718;5.324;2023-11-19T07:35:55;100597.53;;;8.95;100.00
57056;BME280;42945;51.718;5.324;2023-11-19T07:38:21;100684.72;;;9.61;100.00
57056;BME280;42945;51.718;5.324;2023-11-19T07:40:46;100686.00;;;9.70;100.00
57056;BME280;42945;51.718;5.324;2023-11-19T07:43:14;100696.75;;;9.51;100.00
57056;BME280;42945;51.718;5.324;2023-11-19T07:45:40;100685.41;;;9.49;100.00
57056;BME280;42945;51.718;5.324;2023-11-19T07:48:08;100735.00;;;9.61;100.00
57056;BME280;42945;51.718;5.324;2023-11-19T07:50:33;100716.59;;;9.76;100.00
57056;BME280;42945;51.718;5.324;2023-11-19T07:52:59;100716.38;;;9.79;100.00
57056;BME280;42945;51.718;5.324;2023-11-19T07:55:24;100693.97;;;9.54;100.00
57056;BME280;42945;51.718;5.324;2023-11-19T07:57:49;100687.03;;;9.68;100.00
57056;BME280;42945;51.718;5.324;2023-11-19T08:00:14;100597.41;;;9.14;100.00
57056;BME280;42945;51.718;5.324;2023-11-19T08:02:40;100706.81;;;9.92;100.00
57056;BME280;42945;51.718;5.324;2023-11-19T08:05:05;100702.38;;;9.93;100.00
57056;BME280;42945;51.718;5.324;2023-11-19T08:07:30;100700.50;;;9.95;100.00
57056;BME280;42945;51.718;5.324;2023-11-19T08:09:56;100722.91;;;9.89;100.00
57056;BME280;42945;51.718;5.324;2023-11-19T08:12:21;100705.63;;;9.98;100.00
57056;BME280;42945;51.718;5.324;2023-11-19T08:14:46;100727.50;;;9.85;100.00
57056;BME280;42945;51.718;5.324;2023-11-19T08:17:12;100722.19;;;10.01;100.00
57056;BME280;42945;51.718;5.324;2023-11-19T08:19:37;100652.13;;;9.91;100.00
57056;BME280;42945;51.718;5.324;2023-11-19T08:22:02;100710.72;;;10.17;100.00
57056;BME280;42945;51.718;5.324;2023-11-19T08:24:27;100775.03;;;10.81;100.00
57056;BME280;42945;51.718;5.324;2023-11-19T08:26:53;100698.41;;;10.32;100.00
57056;BME280;42945;51.718;5.324;2023-11-19T08:29:18;100751.91;;;10.38;100.00
57056;BME280;42945;51.718;5.324;2023-11-19T08:31:43;100711.66;;;10.32;100.00
57056;BME280;42945;51.718;5.324;2023-11-19T08:34:09;100750.09;;;10.39;100.00
57056;BME280;42945;51.718;5.324;2023-11-19T08:36:34;100738.72;;;10.37;100.00
57056;BME280;42945;51.718;5.324;2023-11-19T08:39:00;100667.19;;;10.21;100.00
57056;BME280;42945;51.718;5.324;2023-11-19T08:41:25;100671.00;;;10.31;100.00
57056;BME280;42945;51.718;5.324;2023-11-19T08:43:50;100698.13;;;10.36;100.00
57056;BME280;42945;51.718;5.324;2023-11-19T08:46:16;100715.84;;;10.50;100.00
57056;BME280;42945;51.718;5.324;2023-11-19T08:48:42;100685.09;;;10.62;100.00
57056;BME280;42945;51.718;5.324;2023-11-19T08:51:07;100703.28;;;10.54;100.00
57056;BME280;42945;51.718;5.324;2023-11-19T08:53:32;100651.53;;;10.47;100.00
57056;BME280;42945;51.718;5.324;2023-11-19T08:55:57;100711.16;;;10.55;100.00
57056;BME280;42945;51.718;5.324;2023-11-19T08:58:23;100657.44;;;10.52;100.00
57056;BME280;42945;51.718;5.324;2023-11-19T09:00:48;100721.44;;;10.46;100.00
57056;BME280;42945;51.718;5.324;2023-11-19T09:03:13;100730.63;;;10.54;100.00
57056;BME280;42945;51.718;5.324;2023-11-19T09:05:38;100726.00;;;10.58;100.00
57056;BME280;42945;51.718;5.324;2023-11-19T09:08:04;100616.19;;;9.87;100.00
57056;BME280;42945;51.718;5.324;2023-11-19T09:10:29;100710.19;;;10.56;100.00
57056;BME280;42945;51.718;5.324;2023-11-19T09:12:54;100687.56;;;10.65;100.00
57056;BME280;42945;51.718;5.324;2023-11-19T09:15:20;100674.31;;;10.65;100.00
57056;BME280;42945;51.718;5.324;2023-11-19T09:17:45;100713.19;;;10.80;100.00
57056;BME280;42945;51.718;5.324;2023-11-19T09:20:10;100697.25;;;10.80;100.00
57056;BME280;42945;51.718;5.324;2023-11-19T09:22:37;100661.44;;;10.73;100.00
57056;BME280;42945;51.718;5.324;2023-11-19T09:25:02;100689.69;;;10.74;100.00
57056;BME280;42945;51.718;5.324;2023-11-19T09:27:28;100738.44;;;10.72;100.00
57056;BME280;42945;51.718;5.324;2023-11-19T09:29:54;100696.75;;;10.74;100.00
57056;BME280;42945;51.718;5.324;2023-11-19T09:32:26;100648.94;;;10.75;100.00
57056;BME280;42945;51.718;5.324;2023-11-19T09:34:51;100728.25;;;10.94;100.00
57056;BME280;42945;51.718;5.324;2023-11-19T09:37:17;100700.19;;;10.90;100.00
57056;BME280;42945;51.718;5.324;2023-11-19T09:39:42;100681.63;;;11.04;100.00
57056;BME280;42945;51.718;5.324;2023-11-19T09:42:10;100699.94;;;11.09;100.00
57056;BME280;42945;51.718;5.324;2023-11-19T09:44:36;100701.81;;;11.07;100.00
57056;BME280;42945;51.718;5.324;2023-11-19T09:47:02;100716.59;;;11.26;100.00
57056;BME280;42945;51.718;5.324;2023-11-19T09:49:28;100723.91;;;11.36;100.00
57056;BME280;42945;51.718;5.324;2023-11-19T09:51:53;100571.06;;;10.62;100.00
57056;BME280;42945;51.718;5.324;2023-11-19T09:54:19;100581.78;;;10.60;100.00
57056;BME280;42945;51.718;5.324;2023-11-19T09:56:44;100665.28;;;11.39;100.00
57056;BME280;42945;51.718;5.324;2023-11-19T09:59:10;100632.56;;;11.39;100.00
57056;BME280;42945;51.718;5.324;2023-11-19T10:01:36;100699.41;;;11.46;100.00
57056;BME280;42945;51.718;5.324;2023-11-19T10:04:01;100674.09;;;11.40;100.00
57056;BME280;42945;51.718;5.324;2023-11-19T10:06:27;100684.78;;;11.53;100.00
57056;BME280;42945;51.718;5.324;2023-11-19T10:08:52;100641.75;;;11.48;100.00
57056;BME280;42945;51.718;5.324;2023-11-19T10:11:18;100704.28;;;11.66;100.00
57056;BME280;42945;51.718;5.324;2023-11-19T10:13:43;100660.44;;;11.46;100.00
57056;BME280;42945;51.718;5.324;2023-11-19T10:16:12;100666.66;;;11.59;100.00
57056;BME280;42945;51.718;5.324;2023-11-19T10:18:38;100451.69;;;10.35;100.00
57056;BME280;42945;51.718;5.324;2023-11-19T10:21:07;100570.25;;;11.03;100.00
57056;BME280;42945;51.718;5.324;2023-11-19T10:23:52;100627.09;;;11.55;100.00
57056;BME280;42945;51.718;5.324;2023-11-19T10:26:19;100580.72;;;10.92;100.00
57056;BME280;42945;51.718;5.324;2023-11-19T10:28:47;100655.31;;;11.43;100.00
57056;BME280;42945;51.718;5.324;2023-11-19T10:31:16;100659.63;;;11.58;100.00
57056;BME280;42945;51.718;5.324;2023-11-19T10:33:42;100636.22;;;11.51;100.00
57056;BME280;42945;51.718;5.324;2023-11-19T10:36:08;100642.94;;;11.56;100.00
57056;BME280;42945;51.718;5.324;2023-11-19T10:38:34;100505.81;;;11.01;100.00
57056;BME280;42945;51.718;5.324;2023-11-19T10:41:00;100621.63;;;11.71;100.00
57056;BME280;42945;51.718;5.324;2023-11-19T10:43:25;100530.25;;;11.06;100.00
57056;BME280;42945;51.718;5.324;2023-11-19T10:45:51;100601.28;;;11.84;100.00
57056;BME280;42945;51.718;5.324;2023-11-19T10:48:16;100665.91;;;11.85;100.00
57056;BME280;42945;51.718;5.324;2023-11-19T10:50:43;100636.03;;;12.21;100.00
57056;BME280;42945;51.718;5.324;2023-11-19T10:53:10;100636.44;;;12.02;100.00
57056;BME280;42945;51.718;5.324;2023-11-19T10:55:36;100653.16;;;12.04;100.00
57056;BME280;42945;51.718;5.324;2023-11-19T10:58:04;100617.94;;;12.00;100.00
57056;BME280;42945;51.718;5.324;2023-11-19T11:00:30;100637.28;;;12.02;100.00
57056;BME280;42945;51.718;5.324;2023-11-19T11:03:01;100643.88;;;11.97;100.00
57056;BME280;42945;51.718;5.324;2023-11-19T11:05:28;100627.50;;;12.03;100.00
57056;BME280;42945;51.718;5.324;2023-11-19T11:07:55;100648.22;;;11.98;100.00
57056;BME280;42945;51.718;5.324;2023-11-19T11:10:20;100629.47;;;11.87;100.00
57056;BME280;42945;51.718;5.324;2023-11-19T11:12:47;100579.06;;;11.85;100.00
57056;BME280;42945;51.718;5.324;2023-11-19T11:15:15;100638.88;;;11.92;100.00
57056;BME280;42945;51.718;5.324;2023-11-19T11:17:41;100511.44;;;11.23;100.00
57056;BME280;42945;51.718;5.324;2023-11-19T11:20:08;100611.31;;;11.93;100.00
57056;BME280;42945;51.718;5.324;2023-11-19T11:22:35;100695.03;;;12.53;100.00
57056;BME280;42945;51.718;5.324;2023-11-19T11:28:11;100619.94;;;11.97;100.00
57056;BME280;42945;51.718;5.324;2023-11-19T11:30:44;100632.91;;;12.01;100.00
57056;BME280;42945;51.718;5.324;2023-11-19T11:36:03;100603.25;;;12.08;100.00
57056;BME280;42945;51.718;5.324;2023-11-19T11:38:34;100600.88;;;11.90;100.00
57056;BME280;42945;51.718;5.324;2023-11-19T11:41:16;100520.28;;;11.37;100.00
57056;BME280;42945;51.718;5.324;2023-11-19T11:43:45;100625.59;;;11.92;100.00
57056;BME280;42945;51.718;5.324;2023-11-19T11:46:56;100621.38;;;11.88;100.00
57056;BME280;42945;51.718;5.324;2023-11-19T11:48:57;100632.72;;;11.77;100.00
57056;BME280;42945;51.718;5.324;2023-11-19T11:52:07;100624.25;;;11.58;100.00
57056;BME280;42945;51.718;5.324;2023-11-19T11:54:08;100609.56;;;11.52;100.00
57056;BME280;42945;51.718;5.324;2023-11-19T11:56:36;100584.19;;;11.48;100.00
57056;BME280;42945;51.718;5.324;2023-11-19T11:59:01;100563.59;;;11.65;100.00
57056;BME280;42945;51.718;5.324;2023-11-19T12:01:31;100634.63;;;11.75;100.00
57056;BME280;42945;51.718;5.324;2023-11-19T12:03:57;100581.72;;;11.45;100.00
57056;BME280;42945;51.718;5.324;2023-11-19T12:06:22;100595.81;;;11.46;100.00
57056;BME280;42945;51.718;5.324;2023-11-19T12:08:47;100606.16;;;11.23;100.00
57056;BME280;42945;51.718;5.324;2023-11-19T12:11:13;100632.47;;;11.26;100.00
57056;BME280;42945;51.718;5.324;2023-11-19T12:13:57;100622.63;;;11.28;100.00
57056;BME280;42945;51.718;5.324;2023-11-19T12:16:24;100527.66;;;10.77;100.00
57056;BME280;42945;51.718;5.324;2023-11-19T12:18:49;100503.13;;;10.74;100.00
57056;BME280;42945;51.718;5.324;2023-11-19T12:21:27;100622.88;;;11.38;100.00
57056;BME280;42945;51.718;5.324;2023-11-19T12:23:53;100560.06;;;11.51;100.00
57056;BME280;42945;51.718;5.324;2023-11-19T12:26:31;100613.06;;;11.53;100.00
57056;BME280;42945;51.718;5.324;2023-11-19T12:28:57;100578.38;;;11.69;100.00
57056;BME280;42945;51.718;5.324;2023-11-19T12:31:23;100619.22;;;11.80;100.00
57056;BME280;42945;51.718;5.324;2023-11-19T12:33:50;100607.22;;;11.75;100.00
57056;BME280;42945;51.718;5.324;2023-11-19T12:36:15;100456.03;;;11.32;100.00
57056;BME280;42945;51.718;5.324;2023-11-19T12:38:41;100614.13;;;12.05;100.00
57056;BME280;42945;51.718;5.324;2023-11-19T12:41:06;100611.81;;;12.26;100.00
57056;BME280;42945;51.718;5.324;2023-11-19T12:43:33;100557.78;;;12.12;100.00
57056;BME280;42945;51.718;5.324;2023-11-19T12:46:03;100636.47;;;12.15;100.00
57056;BME280;42945;51.718;5.324;2023-11-19T12:48:28;100600.50;;;12.09;100.00
57056;BME280;42945;51.718;5.324;2023-11-19T12:50:56;100580.56;;;12.29;100.00
57056;BME280;42945;51.718;5.324;2023-11-19T12:53:26;100569.91;;;12.16;100.00